Time;durP1;ratioP1;P1;durP2;ratioP2;P2;SDS_P1;SDS_P2;PMS_P1;PMS_P2;Temp;Humidity;BMP_temperature;BMP_pressure;BME280_temperature;BME280_humidity;BME280_pressure;Samples;Min_cycle;Max_cycle;Signal;HPM_P1;HPM_P2
2023/09/03 00:00:27;;;;;;;9.07;4.88;;;;;;;;;;1041942;28;20522;-75
2023/09/03 00:00:57;;;;;;;14.25;5.38;;;;;;;;;;1046667;28;20371;-74
2023/09/03 00:01:28;;;;;;;8.68;5.05;;;;;;;;;;1041546;28;20139;-74
2023/09/03 00:01:58;;;;;;;8.20;5.18;;;;;;;;;;1046050;28;20036;-74
2023/09/03 00:02:29;;;;;;;9.82;5.07;;;;;;;;;;1042433;28;20024;-75
2023/09/03 00:02:59;;;;;;;7.80;4.90;;;;;;;;;;1039399;28;20287;-74
2023/09/03 00:03:29;;;;;;;9.90;4.93;;;;;;;;;;1045659;28;20052;-74
2023/09/03 00:03:59;;;;;;;7.78;5.20;;;;;;;;;;1046648;28;20015;-74
2023/09/03 00:04:30;;;;;;;12.57;5.80;;;;;;;;;;1041650;28;20024;-72
2023/09/03 00:05:00;;;;;;;9.45;5.40;;;;;;;;;;1042439;28;20486;-75
2023/09/03 00:05:30;;;;;;;7.95;4.80;;;;;;;;;;1037582;28;20077;-75
2023/09/03 00:06:00;;;;;;;8.80;4.90;;;;;;;;;;1037965;28;20014;-72
2023/09/03 00:06:31;;;;;;;8.32;5.15;;;;;;;;;;1035094;28;20148;-74
2023/09/03 00:07:01;;;;;;;8.05;5.70;;;;;;;;;;1033617;28;20491;-73
2023/09/03 00:07:31;;;;;;;10.98;5.40;;;;;;;;;;1038169;28;20025;-75
2023/09/03 00:08:03;;;;;;;12.77;5.72;;;;;;;;;;1037617;28;20504;-74
2023/09/03 00:08:33;;;;;;;8.25;5.68;;;;;;;;;;1037894;28;20287;-74
2023/09/03 00:09:06;;;;;;;8.30;4.90;;;;;;;;;;1042266;28;20033;-72
2023/09/03 00:09:37;;;;;;;8.18;5.35;;;;;;;;;;1041935;28;20063;-74
2023/09/03 00:10:07;;;;;;;7.63;4.93;;;;;;;;;;1042286;28;20019;-72
2023/09/03 00:10:38;;;;;;;11.30;5.70;;;;;;;;;;1046565;28;20009;-75
2023/09/03 00:11:08;;;;;;;7.32;4.55;;;;;;;;;;1045763;28;20048;-73
2023/09/03 00:11:38;;;;;;;7.13;5.30;;;;;;;;;;1046409;28;20020;-74
2023/09/03 00:12:08;;;;;;;6.72;4.55;;;;;;;;;;1045789;28;20027;-74
2023/09/03 00:12:39;;;;;;;9.13;5.20;;;;;;;;;;1046267;28;20031;-71
2023/09/03 00:13:09;;;;;;;8.52;4.63;;;;;;;;;;1046528;28;20032;-75
2023/09/03 00:13:39;;;;;;;7.22;4.80;;;;;;;;;;1046465;28;20070;-73
2023/09/03 00:14:09;;;;;;;6.55;4.22;;;;;;;;;;1042315;28;20366;-75
2023/09/03 00:14:40;;;;;;;10.48;4.60;;;;;;;;;;1041761;28;20028;-74
2023/09/03 00:15:10;;;;;;;7.47;5.00;;;;;;;;;;1045766;28;20071;-74
2023/09/03 00:15:40;;;;;;;13.10;5.68;;;;;;;;;;1045738;28;20107;-73
2023/09/03 00:16:11;;;;;;;6.53;4.95;;;;;;;;;;1045577;28;20024;-74
2023/09/03 00:16:41;;;;;;;9.85;4.85;;;;;;;;;;1046432;28;20920;-74
2023/09/03 00:17:14;;;;;;;9.80;4.95;;;;;;;;;;1045681;28;20017;-74
2023/09/03 00:17:45;;;;;;;6.35;4.40;;;;;;;;;;1041904;28;20029;-74
2023/09/03 00:18:15;;;;;;;6.75;4.63;;;;;;;;;;1046118;28;20096;-74
2023/09/03 00:18:47;;;;;;;9.30;4.32;;;;;;;;;;1045718;28;20596;-74
2023/09/03 00:19:17;;;;;;;7.95;5.20;;;;;;;;;;1045845;28;20032;-74
2023/09/03 00:19:48;;;;;;;10.52;4.85;;;;;;;;;;1046300;28;20464;-74
2023/09/03 00:20:18;;;;;;;7.45;4.35;;;;;;;;;;1041667;28;20025;-75
2023/09/03 00:20:58;;;;;;;9.30;4.50;;;;;;;;;;1046195;28;20008;-72
2023/09/03 00:21:28;;;;;;;8.38;4.88;;;;;;;;;;1045661;28;20069;-74
2023/09/03 00:21:58;;;;;;;7.22;4.65;;;;;;;;;;1042378;28;20421;-74
2023/09/03 00:22:29;;;;;;;6.25;3.72;;;;;;;;;;1041645;28;20127;-74
2023/09/03 00:22:59;;;;;;;6.15;4.43;;;;;;;;;;1038323;28;20021;-75
2023/09/03 00:23:30;;;;;;;6.18;4.55;;;;;;;;;;1032797;28;20372;-75
2023/09/03 00:24:01;;;;;;;5.22;4.25;;;;;;;;;;1033736;28;20081;-72
2023/09/03 00:24:32;;;;;;;8.70;5.15;;;;;;;;;;1034041;28;20042;-74
2023/09/03 00:25:03;;;;;;;6.30;4.38;;;;;;;;;;1037289;28;20443;-73
2023/09/03 00:25:34;;;;;;;5.80;4.07;;;;;;;;;;1034303;28;20116;-74
2023/09/03 00:26:04;;;;;;;6.22;4.53;;;;;;;;;;1037642;28;20093;-74
2023/09/03 00:26:34;;;;;;;10.20;4.97;;;;;;;;;;1033523;28;20494;-73
2023/09/03 00:27:04;;;;;;;6.50;4.97;;;;;;;;;;1042462;28;20013;-74
2023/09/03 00:27:35;;;;;;;5.78;3.92;;;;;;;;;;1046007;28;20021;-74
2023/09/03 00:28:05;;;;;;;5.78;3.83;;;;;;;;;;1045686;28;20047;-72
2023/09/03 00:28:35;;;;;;;6.07;4.28;;;;;;;;;;1042195;28;20108;-74
2023/09/03 00:29:06;;;;;;;8.18;4.57;;;;;;;;;;1037592;28;20037;-74
2023/09/03 00:29:36;;;;;;;11.02;4.38;;;;;;;;;;1034236;28;20100;-75
2023/09/03 00:30:07;;;;;;;8.25;3.95;;;;;;;;;;1033303;28;20466;-72
2023/09/03 00:30:37;;;;;;;8.40;4.43;;;;;;;;;;1041745;28;20055;-72
2023/09/03 00:31:08;;;;;;;6.47;3.95;;;;;;;;;;1038117;28;20013;-74
2023/09/03 00:31:38;;;;;;;7.50;4.63;;;;;;;;;;1037705;28;20623;-75
2023/09/03 00:32:08;;;;;;;7.05;4.78;;;;;;;;;;1033831;28;20017;-74
2023/09/03 00:32:38;;;;;;;6.13;4.95;;;;;;;;;;1033452;28;20030;-74
2023/09/03 00:33:09;;;;;;;9.25;4.20;;;;;;;;;;1033366;28;20029;-73
2023/09/03 00:33:39;;;;;;;12.43;4.90;;;;;;;;;;1033369;28;20022;-74
2023/09/03 00:34:09;;;;;;;7.30;4.47;;;;;;;;;;1033295;28;20018;-75
2023/09/03 00:34:40;;;;;;;6.68;3.92;;;;;;;;;;1038311;28;20112;-74
2023/09/03 00:35:10;;;;;;;7.22;4.07;;;;;;;;;;1038205;28;20522;-74
2023/09/03 00:35:43;;;;;;;8.95;4.43;;;;;;;;;;1045868;28;20028;-72
2023/09/03 00:36:14;;;;;;;5.80;4.30;;;;;;;;;;1046855;28;20020;-74
2023/09/03 00:36:44;;;;;;;8.50;4.10;;;;;;;;;;1045798;28;20016;-74
2023/09/03 00:37:15;;;;;;;8.85;4.38;;;;;;;;;;1041501;28;20100;-74
2023/09/03 00:37:45;;;;;;;15.63;4.68;;;;;;;;;;1042270;28;20466;-74
2023/09/03 00:38:15;;;;;;;6.13;4.53;;;;;;;;;;1041644;28;20635;-74
2023/09/03 00:38:49;;;;;;;6.85;4.63;;;;;;;;;;1044414;28;20029;-75
2023/09/03 00:39:19;;;;;;;9.57;4.10;;;;;;;;;;1046482;28;20017;-74
2023/09/03 00:39:50;;;;;;;9.38;4.72;;;;;;;;;;1045789;28;20016;-75
2023/09/03 00:40:20;;;;;;;10.75;4.03;;;;;;;;;;1042581;28;20067;-75
2023/09/03 00:40:50;;;;;;;7.85;4.32;;;;;;;;;;1037531;28;20017;-72
2023/09/03 00:41:21;;;;;;;9.32;3.97;;;;;;;;;;1037570;28;20018;-74
2023/09/03 00:41:51;;;;;;;6.55;4.10;;;;;;;;;;1038195;28;20025;-74
2023/09/03 00:42:21;;;;;;;6.25;4.40;;;;;;;;;;1041337;28;20031;-74
2023/09/03 00:42:51;;;;;;;9.48;3.97;;;;;;;;;;1042521;28;20151;-74
2023/09/03 00:43:22;;;;;;;6.28;4.35;;;;;;;;;;1040915;28;20044;-74
2023/09/03 00:43:52;;;;;;;8.27;4.85;;;;;;;;;;1043704;28;20344;-73
2023/09/03 00:44:22;;;;;;;5.90;4.55;;;;;;;;;;1042178;28;20035;-72
2023/09/03 00:44:52;;;;;;;6.60;4.05;;;;;;;;;;1041654;28;20077;-73
2023/09/03 00:45:23;;;;;;;4.43;3.58;;;;;;;;;;1042050;28;20017;-73
2023/09/03 00:45:53;;;;;;;7.47;4.18;;;;;;;;;;1037620;28;20455;-74
2023/09/03 00:46:23;;;;;;;5.55;4.05;;;;;;;;;;1037578;28;20092;-71
2023/09/03 00:46:54;;;;;;;5.57;3.95;;;;;;;;;;1038047;28;20021;-73
2023/09/03 00:47:24;;;;;;;5.78;4.30;;;;;;;;;;1040697;28;20756;-74
2023/09/03 00:50:31;;;;;;;5.78;4.00;;;;;;;;;;1040529;28;20045;-76
2023/09/03 00:51:02;;;;;;;7.28;4.30;;;;;;;;;;1024791;28;20593;-75
2023/09/03 00:51:33;;;;;;;8.73;4.38;;;;;;;;;;1033253;28;20121;-74
2023/09/03 00:52:03;;;;;;;6.45;3.83;;;;;;;;;;1028694;28;20046;-75
2023/09/03 00:52:33;;;;;;;6.05;4.00;;;;;;;;;;1029743;28;20026;-76
2023/09/03 00:53:06;;;;;;;8.68;4.20;;;;;;;;;;1025827;28;20058;-75
2023/09/03 00:53:37;;;;;;;9.98;4.53;;;;;;;;;;1032111;28;20050;-72
2023/09/03 00:54:07;;;;;;;8.98;4.07;;;;;;;;;;1030779;28;20011;-75
2023/09/03 00:54:37;;;;;;;5.25;3.60;;;;;;;;;;1033229;28;20028;-72
2023/09/03 00:55:08;;;;;;;8.15;4.15;;;;;;;;;;1029732;28;20029;-76
2023/09/03 00:55:38;;;;;;;5.93;4.18;;;;;;;;;;1024907;28;20136;-75
2023/09/03 00:56:08;;;;;;;7.32;4.15;;;;;;;;;;1025212;28;20023;-75
2023/09/03 00:56:39;;;;;;;7.78;4.07;;;;;;;;;;1025937;28;20025;-74
2023/09/03 00:57:09;;;;;;;9.45;4.70;;;;;;;;;;1033212;28;20526;-73
2023/09/03 00:57:39;;;;;;;5.75;4.40;;;;;;;;;;1029888;28;20472;-74
2023/09/03 00:58:09;;;;;;;15.02;5.20;;;;;;;;;;1030093;28;20010;-75
2023/09/03 00:58:40;;;;;;;8.10;4.70;;;;;;;;;;1021219;29;20023;-74
2023/09/03 00:59:10;;;;;;;8.45;4.60;;;;;;;;;;1014036;29;20028;-73
2023/09/03 00:59:40;;;;;;;5.95;4.25;;;;;;;;;;1016520;29;20050;-74
2023/09/03 01:00:11;;;;;;;8.40;4.05;;;;;;;;;;1020093;28;20027;-75
2023/09/03 01:00:41;;;;;;;5.28;4.15;;;;;;;;;;1026703;28;20018;-75
2023/09/03 01:01:11;;;;;;;6.03;3.95;;;;;;;;;;1030569;28;20481;-73
2023/09/03 01:01:42;;;;;;;5.05;3.90;;;;;;;;;;1027147;28;20089;-75
2023/09/03 01:02:13;;;;;;;6.43;4.15;;;;;;;;;;1029285;28;20018;-75
2023/09/03 01:02:44;;;;;;;6.43;4.15;;;;;;;;;;1029565;28;20011;-76
2023/09/03 01:03:14;;;;;;;6.60;4.28;;;;;;;;;;1021693;28;20017;-75
2023/09/03 01:03:45;;;;;;;7.03;3.92;;;;;;;;;;1013623;29;20414;-74
2023/09/03 01:04:15;;;;;;;7.50;4.13;;;;;;;;;;1018179;28;20062;-76
2023/09/03 01:04:45;;;;;;;5.72;4.30;;;;;;;;;;1025888;28;20086;-75
2023/09/03 01:05:16;;;;;;;5.88;4.13;;;;;;;;;;1033587;28;20022;-73
2023/09/03 01:05:46;;;;;;;6.43;3.53;;;;;;;;;;1033982;28;20393;-74
2023/09/03 01:06:16;;;;;;;5.32;4.00;;;;;;;;;;1033178;28;20018;-73
2023/09/03 01:06:49;;;;;;;6.35;4.10;;;;;;;;;;1026826;28;20029;-73
2023/09/03 01:07:20;;;;;;;8.18;4.25;;;;;;;;;;1022514;28;20023;-76
2023/09/03 01:07:50;;;;;;;7.38;4.53;;;;;;;;;;1029072;28;20018;-75
2023/09/03 01:08:20;;;;;;;15.85;4.53;;;;;;;;;;1030004;28;20020;-75
2023/09/03 01:08:51;;;;;;;5.40;3.97;;;;;;;;;;1033323;28;20096;-75
2023/09/03 01:09:21;;;;;;;7.13;4.30;;;;;;;;;;1028911;28;20006;-72
2023/09/03 01:09:52;;;;;;;5.40;4.10;;;;;;;;;;1029174;28;20935;-74
2023/09/03 01:10:24;;;;;;;5.57;3.55;;;;;;;;;;1020990;28;20031;-73
2023/09/03 01:11:01;;;;;;;7.50;4.20;;;;;;;;;;1018128;29;20026;-74
2023/09/03 01:11:32;;;;;;;12.45;4.57;;;;;;;;;;1021767;28;20011;-74
2023/09/03 01:12:21;;;;;;;8.02;4.35;;;;;;;;;;1018524;29;20525;-74
2023/09/03 01:12:55;;;;;;;14.60;4.40;;;;;;;;;;1024102;28;20241;-74
2023/09/03 01:13:26;;;;;;;10.32;5.00;;;;;;;;;;1021794;28;20106;-74
2023/09/03 01:13:58;;;;;;;6.18;3.78;;;;;;;;;;1024276;28;20018;-73
2023/09/03 01:14:43;;;;;;;5.55;3.63;;;;;;;;;;1024879;28;20050;-74
2023/09/03 01:15:14;;;;;;;6.97;3.53;;;;;;;;;;1025649;28;20019;-75
2023/09/03 01:15:46;;;;;;;6.55;3.85;;;;;;;;;;1025331;28;20609;-75
2023/09/03 01:16:25;;;;;;;8.65;4.18;;;;;;;;;;1027484;28;20054;-74
2023/09/03 01:17:00;;;;;;;6.22;4.30;;;;;;;;;;1029576;28;20006;-75
2023/09/03 01:17:37;;;;;;;7.45;3.92;;;;;;;;;;1029751;28;20019;-74
2023/09/03 01:18:07;;;;;;;5.68;3.78;;;;;;;;;;1021712;29;20011;-75
2023/09/03 01:18:37;;;;;;;6.55;3.72;;;;;;;;;;1022521;28;20094;-74
2023/09/03 01:19:23;;;;;;;5.97;3.58;;;;;;;;;;1026467;28;20631;-74
2023/09/03 01:20:06;;;;;;;6.60;3.60;;;;;;;;;;1023187;28;20031;-75
2023/09/03 01:20:42;;;;;;;8.95;4.07;;;;;;;;;;1028620;28;20022;-75
2023/09/03 01:21:17;;;;;;;6.72;4.30;;;;;;;;;;1029184;28;20022;-75
2023/09/03 01:21:51;;;;;;;7.20;4.38;;;;;;;;;;1028110;28;20042;-75
2023/09/03 01:22:39;;;;;;;5.13;3.63;;;;;;;;;;1026938;28;20029;-74
2023/09/03 01:23:13;;;;;;;5.80;3.90;;;;;;;;;;1029712;28;20014;-76
2023/09/03 01:23:51;;;;;;;5.82;4.05;;;;;;;;;;1032269;28;20013;-72
2023/09/03 01:24:42;;;;;;;6.40;4.03;;;;;;;;;;1029598;28;20446;-76
2023/09/03 01:25:18;;;;;;;6.07;4.30;;;;;;;;;;1025192;28;20019;-76
2023/09/03 01:26:03;;;;;;;6.03;4.05;;;;;;;;;;1021223;29;20058;-75
2023/09/03 01:26:44;;;;;;;5.60;4.05;;;;;;;;;;1025823;28;20031;-75
2023/09/03 01:27:17;;;;;;;4.75;3.33;;;;;;;;;;1021575;29;20031;-75
2023/09/03 01:27:59;;;;;;;5.53;3.65;;;;;;;;;;1024309;28;20113;-75
2023/09/03 01:28:30;;;;;;;6.22;3.70;;;;;;;;;;1024825;28;20079;-74
2023/09/03 01:29:00;;;;;;;5.45;3.80;;;;;;;;;;1021223;29;20030;-74
2023/09/03 01:29:30;;;;;;;5.30;3.80;;;;;;;;;;1022638;28;20043;-75
2023/09/03 01:30:00;;;;;;;4.93;3.88;;;;;;;;;;1021060;29;20143;-75
2023/09/03 01:30:31;;;;;;;5.88;3.55;;;;;;;;;;1024964;28;20496;-76
2023/09/03 01:31:02;;;;;;;6.50;3.63;;;;;;;;;;1021831;28;20030;-74
2023/09/03 01:31:32;;;;;;;7.05;4.00;;;;;;;;;;1021275;28;20394;-74
2023/09/03 01:32:02;;;;;;;5.53;3.97;;;;;;;;;;1025198;28;20027;-72
2023/09/03 01:32:33;;;;;;;5.03;4.05;;;;;;;;;;1025754;28;20023;-75
2023/09/03 01:33:03;;;;;;;8.45;3.67;;;;;;;;;;1021097;28;20027;-75
2023/09/03 01:33:34;;;;;;;5.60;4.20;;;;;;;;;;1021757;28;20035;-75
2023/09/03 01:34:05;;;;;;;8.30;4.00;;;;;;;;;;1021231;28;20027;-74
2023/09/03 01:34:35;;;;;;;5.97;4.03;;;;;;;;;;1021472;28;20620;-73
2023/09/03 01:35:06;;;;;;;5.28;4.13;;;;;;;;;;1025977;28;20015;-74
2023/09/03 01:35:37;;;;;;;4.97;3.60;;;;;;;;;;1027875;28;20026;-76
2023/09/03 01:36:09;;;;;;;6.97;4.10;;;;;;;;;;1025704;28;20444;-74
2023/09/03 01:36:39;;;;;;;6.22;3.97;;;;;;;;;;1021607;28;20022;-74
2023/09/03 01:37:09;;;;;;;6.60;3.80;;;;;;;;;;1024921;28;20019;-74
2023/09/03 01:37:40;;;;;;;9.43;3.70;;;;;;;;;;1021554;29;20015;-74
2023/09/03 01:38:10;;;;;;;4.72;3.50;;;;;;;;;;1017195;29;20024;-73
2023/09/03 01:38:40;;;;;;;7.72;4.00;;;;;;;;;;1017665;28;20016;-75
2023/09/03 01:39:11;;;;;;;6.82;4.35;;;;;;;;;;1021235;28;20111;-75
2023/09/03 01:39:42;;;;;;;6.57;4.22;;;;;;;;;;1012358;29;20019;-75
2023/09/03 01:40:12;;;;;;;6.43;3.70;;;;;;;;;;1013488;29;20384;-75
2023/09/03 01:40:42;;;;;;;5.97;4.10;;;;;;;;;;1013016;29;20107;-73
2023/09/03 01:41:13;;;;;;;6.88;4.07;;;;;;;;;;1013445;29;20004;-73
2023/09/03 01:41:44;;;;;;;8.43;4.28;;;;;;;;;;1021488;28;20102;-73
2023/09/03 01:42:15;;;;;;;11.77;4.53;;;;;;;;;;1025166;28;20026;-76
2023/09/03 01:42:45;;;;;;;11.68;4.03;;;;;;;;;;1029950;28;20014;-74
2023/09/03 01:43:15;;;;;;;7.82;4.40;;;;;;;;;;1033227;28;20526;-75
2023/09/03 01:43:45;;;;;;;8.00;3.70;;;;;;;;;;1033037;28;20032;-74
2023/09/03 01:44:16;;;;;;;7.68;4.18;;;;;;;;;;1033494;28;20006;-75
2023/09/03 01:44:46;;;;;;;10.13;4.35;;;;;;;;;;1033255;28;20014;-75
2023/09/03 01:45:16;;;;;;;11.00;4.20;;;;;;;;;;1029788;28;20006;-75
2023/09/03 01:45:53;;;;;;;5.38;4.30;;;;;;;;;;1029055;28;20042;-75
2023/09/03 01:46:35;;;;;;;7.28;3.90;;;;;;;;;;1025153;28;20081;-75
2023/09/03 01:47:11;;;;;;;6.30;3.72;;;;;;;;;;1021769;29;20007;-73
2023/09/03 01:47:45;;;;;;;5.28;3.80;;;;;;;;;;1028236;28;20079;-75
2023/09/03 01:48:27;;;;;;;11.93;4.05;;;;;;;;;;1023967;28;20414;-75
2023/09/03 01:49:18;;;;;;;9.50;4.18;;;;;;;;;;1024764;28;20064;-75
2023/09/03 01:49:48;;;;;;;5.05;3.40;;;;;;;;;;1024412;28;20026;-73
2023/09/03 01:50:18;;;;;;;7.68;3.88;;;;;;;;;;1029602;28;20014;-74
2023/09/03 01:50:51;;;;;;;8.55;4.45;;;;;;;;;;1028863;28;20038;-76
2023/09/03 01:51:53;;;;;;;10.77;4.90;;;;;;;;;;1025164;28;20042;-75
2023/09/03 01:52:28;;;;;;;6.75;3.97;;;;;;;;;;1028692;28;20022;-75
2023/09/03 01:53:02;;;;;;;6.32;3.47;;;;;;;;;;1016126;29;20495;-77
2023/09/03 01:53:43;;;;;;;7.45;4.05;;;;;;;;;;1017142;29;20514;-74
2023/09/03 01:54:16;;;;;;;7.00;3.95;;;;;;;;;;1013072;29;20076;-75
2023/09/03 01:54:48;;;;;;;10.68;4.00;;;;;;;;;;1017522;29;20016;-75
2023/09/03 01:55:18;;;;;;;11.77;4.30;;;;;;;;;;1021830;29;20015;-73
2023/09/03 01:55:51;;;;;;;8.73;4.22;;;;;;;;;;1022414;28;20066;-75
2023/09/03 01:56:22;;;;;;;8.82;4.07;;;;;;;;;;1017122;29;20018;-75
2023/09/03 01:56:52;;;;;;;7.75;4.40;;;;;;;;;;1021676;29;20110;-74
2023/09/03 01:57:27;;;;;;;5.78;4.25;;;;;;;;;;1025080;28;20756;-73
2023/09/03 01:57:59;;;;;;;8.07;3.97;;;;;;;;;;1021152;28;20011;-72
2023/09/03 01:58:30;;;;;;;5.63;4.00;;;;;;;;;;1018583;29;20031;-75
2023/09/03 01:59:02;;;;;;;6.60;4.45;;;;;;;;;;1017016;29;20138;-74
2023/09/03 01:59:46;;;;;;;7.05;4.35;;;;;;;;;;1024321;28;20576;-75
2023/09/03 02:00:16;;;;;;;6.45;4.30;;;;;;;;;;1024923;28;20026;-74
2023/09/03 02:00:46;;;;;;;6.15;4.53;;;;;;;;;;1021289;29;20030;-74
2023/09/03 02:01:16;;;;;;;6.65;4.57;;;;;;;;;;1021646;28;20023;-74
2023/09/03 02:01:47;;;;;;;5.40;4.07;;;;;;;;;;1021230;29;20126;-75
2023/09/03 02:02:17;;;;;;;5.68;3.85;;;;;;;;;;1029704;28;20030;-75
2023/09/03 02:02:48;;;;;;;6.40;4.30;;;;;;;;;;1027423;28;20024;-74
2023/09/03 02:03:18;;;;;;;6.53;4.00;;;;;;;;;;1017167;29;20047;-74
2023/09/03 02:03:48;;;;;;;5.68;4.28;;;;;;;;;;1021650;29;20031;-75
2023/09/03 02:04:19;;;;;;;6.82;4.50;;;;;;;;;;1025001;28;20121;-72
2023/09/03 02:04:49;;;;;;;8.25;4.40;;;;;;;;;;1021398;28;20065;-73
2023/09/03 02:05:20;;;;;;;8.35;6.03;;;;;;;;;;1025687;28;20081;-73
2023/09/03 02:05:50;;;;;;;6.13;4.25;;;;;;;;;;1021050;29;20806;-74
2023/09/03 02:06:20;;;;;;;6.25;4.30;;;;;;;;;;1024523;28;20122;-74
2023/09/03 02:06:51;;;;;;;9.52;4.43;;;;;;;;;;1029016;28;20053;-75
2023/09/03 02:07:21;;;;;;;7.30;4.35;;;;;;;;;;1021595;29;20817;-74
2023/09/03 02:07:51;;;;;;;7.07;4.45;;;;;;;;;;1024899;28;20018;-75
2023/09/03 02:08:21;;;;;;;8.23;4.22;;;;;;;;;;1029153;28;20026;-75
2023/09/03 02:08:52;;;;;;;11.57;5.10;;;;;;;;;;1029475;28;20027;-74
2023/09/03 02:09:22;;;;;;;5.47;4.72;;;;;;;;;;1028910;28;20833;-74
2023/09/03 02:09:52;;;;;;;9.77;5.22;;;;;;;;;;1024890;28;20050;-73
2023/09/03 02:10:23;;;;;;;10.23;5.97;;;;;;;;;;1021710;29;20027;-72
2023/09/03 02:10:53;;;;;;;10.30;5.88;;;;;;;;;;1025266;28;20026;-75
2023/09/03 02:11:23;;;;;;;8.10;4.45;;;;;;;;;;1025451;28;20027;-75
2023/09/03 02:11:53;;;;;;;13.30;5.20;;;;;;;;;;1021096;28;20055;-75
2023/09/03 02:12:24;;;;;;;8.40;5.10;;;;;;;;;;1016957;29;20558;-72
2023/09/03 02:12:54;;;;;;;7.57;5.13;;;;;;;;;;1017469;29;20024;-76
2023/09/03 02:13:25;;;;;;;6.78;4.70;;;;;;;;;;1013206;29;20028;-76
2023/09/03 02:13:55;;;;;;;10.80;5.18;;;;;;;;;;1017996;28;20047;-76
2023/09/03 02:14:26;;;;;;;8.95;5.15;;;;;;;;;;1024945;28;20053;-75
2023/09/03 02:14:56;;;;;;;8.18;5.35;;;;;;;;;;1024967;28;20023;-72
2023/09/03 02:15:27;;;;;;;7.60;5.25;;;;;;;;;;1025687;28;20794;-72
2023/09/03 02:15:58;;;;;;;7.45;5.38;;;;;;;;;;1025010;28;20081;-74
2023/09/03 02:16:28;;;;;;;6.30;4.82;;;;;;;;;;1021899;28;20540;-75
2023/09/03 02:16:58;;;;;;;6.53;4.82;;;;;;;;;;1017026;29;20063;-73
2023/09/03 02:17:29;;;;;;;8.18;5.43;;;;;;;;;;1021238;28;20078;-75
2023/09/03 02:17:59;;;;;;;6.35;4.43;;;;;;;;;;1021431;28;20086;-77
2023/09/03 02:18:29;;;;;;;5.00;4.15;;;;;;;;;;1021166;28;20031;-76
2023/09/03 02:19:00;;;;;;;5.68;4.80;;;;;;;;;;1029660;28;20034;-74
2023/09/03 02:19:30;;;;;;;6.85;4.82;;;;;;;;;;1016651;29;20094;-75
2023/09/03 02:20:00;;;;;;;8.20;4.97;;;;;;;;;;1016686;28;20168;-74
2023/09/03 02:20:31;;;;;;;7.85;5.18;;;;;;;;;;1013753;29;20019;-75
2023/09/03 02:21:01;;;;;;;10.05;5.40;;;;;;;;;;1013128;29;20084;-76
2023/09/03 02:21:31;;;;;;;7.95;5.55;;;;;;;;;;1021345;28;20399;-76
2023/09/03 02:22:01;;;;;;;7.82;5.53;;;;;;;;;;1017344;28;20511;-75
2023/09/03 02:22:32;;;;;;;6.25;4.68;;;;;;;;;;1026955;28;20014;-75
2023/09/03 02:23:02;;;;;;;7.15;5.35;;;;;;;;;;1026776;28;20034;-75
2023/09/03 02:23:32;;;;;;;7.47;5.00;;;;;;;;;;1018918;29;20023;-74
2023/09/03 02:24:03;;;;;;;8.85;5.70;;;;;;;;;;1026845;28;20025;-74
2023/09/03 02:24:33;;;;;;;7.15;4.65;;;;;;;;;;1018799;29;20094;-76
2023/09/03 02:25:04;;;;;;;8.15;4.53;;;;;;;;;;1021399;29;20003;-75
2023/09/03 02:25:34;;;;;;;11.07;5.32;;;;;;;;;;1022704;28;20450;-75
2023/09/03 02:26:04;;;;;;;8.02;4.95;;;;;;;;;;1026796;28;20019;-75
2023/09/03 02:26:41;;;;;;;7.18;5.20;;;;;;;;;;1026813;28;20010;-74
2023/09/03 02:27:12;;;;;;;7.00;5.22;;;;;;;;;;1026901;28;19999;-75
2023/09/03 02:27:42;;;;;;;6.78;5.10;;;;;;;;;;1020524;28;20019;-75
2023/09/03 02:28:12;;;;;;;8.55;4.90;;;;;;;;;;1022794;29;20066;-75
2023/09/03 02:28:43;;;;;;;9.68;4.85;;;;;;;;;;1022940;28;20019;-72
2023/09/03 02:29:13;;;;;;;7.75;5.15;;;;;;;;;;1026903;28;20035;-74
2023/09/03 02:29:44;;;;;;;8.45;5.88;;;;;;;;;;1030136;28;20477;-74
2023/09/03 02:30:14;;;;;;;14.40;5.78;;;;;;;;;;1030690;28;20381;-75
2023/09/03 02:30:44;;;;;;;10.40;5.10;;;;;;;;;;1026877;28;20029;-75
2023/09/03 02:31:15;;;;;;;9.38;5.75;;;;;;;;;;1027163;28;20478;-75
2023/09/03 02:31:45;;;;;;;8.82;4.80;;;;;;;;;;1026679;28;20015;-74
2023/09/03 02:32:15;;;;;;;9.38;5.15;;;;;;;;;;1018969;29;20094;-75
2023/09/03 02:32:46;;;;;;;12.05;5.22;;;;;;;;;;1022875;28;20050;-76
2023/09/03 02:33:16;;;;;;;6.13;4.72;;;;;;;;;;1018827;29;20026;-75
2023/09/03 02:33:46;;;;;;;8.15;4.95;;;;;;;;;;1018893;29;20446;-74
2023/09/03 02:34:17;;;;;;;6.95;5.28;;;;;;;;;;1023018;28;20063;-75
2023/09/03 02:34:47;;;;;;;10.52;6.55;;;;;;;;;;1030954;28;20700;-74
2023/09/03 02:35:17;;;;;;;6.32;4.85;;;;;;;;;;1033774;28;20002;-73
2023/09/03 02:35:47;;;;;;;6.55;4.88;;;;;;;;;;1030741;28;20019;-75
2023/09/03 02:36:18;;;;;;;7.13;5.18;;;;;;;;;;1026894;28;20461;-75
2023/09/03 02:36:48;;;;;;;8.15;5.32;;;;;;;;;;1026751;28;20528;-74
2023/09/03 02:37:18;;;;;;;6.43;5.05;;;;;;;;;;1031004;28;20052;-74
2023/09/03 02:37:49;;;;;;;7.97;5.13;;;;;;;;;;1034847;28;20034;-75
2023/09/03 02:38:19;;;;;;;7.32;5.22;;;;;;;;;;1030817;28;20073;-75
2023/09/03 02:38:58;;;;;;;6.15;4.50;;;;;;;;;;1026903;28;20101;-75
2023/09/03 02:39:28;;;;;;;7.90;5.10;;;;;;;;;;1022359;29;20106;-74
2023/09/03 02:39:58;;;;;;;7.75;5.20;;;;;;;;;;1020988;28;20410;-74
2023/09/03 02:40:29;;;;;;;6.63;5.00;;;;;;;;;;1023692;28;20027;-75
2023/09/03 02:40:59;;;;;;;6.60;4.70;;;;;;;;;;1022885;28;20023;-74
2023/09/03 02:41:32;;;;;;;6.38;4.85;;;;;;;;;;1022956;28;20031;-74
2023/09/03 02:42:03;;;;;;;8.00;5.72;;;;;;;;;;1018941;29;20028;-73
2023/09/03 02:42:33;;;;;;;7.13;4.60;;;;;;;;;;1019505;29;20142;-75
2023/09/03 02:43:04;;;;;;;7.47;5.35;;;;;;;;;;1019275;29;20063;-74
2023/09/03 02:43:34;;;;;;;7.70;5.15;;;;;;;;;;1022945;28;20785;-74
2023/09/03 02:44:07;;;;;;;10.45;5.32;;;;;;;;;;1026639;28;20029;-74
2023/09/03 02:44:37;;;;;;;11.40;5.32;;;;;;;;;;1023158;28;20080;-72
2023/09/03 02:45:07;;;;;;;14.10;5.20;;;;;;;;;;1027019;28;20069;-72
2023/09/03 02:45:37;;;;;;;9.20;4.97;;;;;;;;;;1027294;28;20090;-73
2023/09/03 02:46:08;;;;;;;11.00;5.60;;;;;;;;;;1026703;28;20036;-74
2023/09/03 02:46:38;;;;;;;9.52;5.13;;;;;;;;;;1022968;29;20031;-75
2023/09/03 02:47:08;;;;;;;10.95;5.18;;;;;;;;;;1022571;28;20506;-74
2023/09/03 02:47:39;;;;;;;9.57;6.15;;;;;;;;;;1026946;28;20069;-74
2023/09/03 02:48:09;;;;;;;13.15;5.13;;;;;;;;;;1030832;28;20022;-75
2023/09/03 02:48:39;;;;;;;9.55;5.30;;;;;;;;;;1034745;28;20591;-74
2023/09/03 02:49:10;;;;;;;10.65;5.20;;;;;;;;;;1030869;28;20026;-75
2023/09/03 02:49:40;;;;;;;6.28;4.75;;;;;;;;;;1022234;29;20055;-74
2023/09/03 02:50:10;;;;;;;7.22;4.75;;;;;;;;;;1022811;28;20023;-74
2023/09/03 02:50:41;;;;;;;6.10;5.15;;;;;;;;;;1022549;29;20516;-75
2023/09/03 02:51:11;;;;;;;7.15;5.20;;;;;;;;;;1022860;28;20040;-75
2023/09/03 02:51:41;;;;;;;10.25;5.20;;;;;;;;;;1026939;28;20030;-74
2023/09/03 02:52:11;;;;;;;10.77;5.35;;;;;;;;;;1022713;28;20572;-75
2023/09/03 02:52:42;;;;;;;8.95;4.78;;;;;;;;;;1027598;28;20102;-76
2023/09/03 02:53:12;;;;;;;10.63;5.55;;;;;;;;;;1023730;29;20019;-75
2023/09/03 02:53:43;;;;;;;6.90;5.13;;;;;;;;;;1019462;29;20059;-73
2023/09/03 02:54:14;;;;;;;10.07;4.88;;;;;;;;;;1023837;28;20487;-75
2023/09/03 02:54:44;;;;;;;9.75;5.05;;;;;;;;;;1027648;28;20065;-75
2023/09/03 02:55:14;;;;;;;8.05;4.72;;;;;;;;;;1031900;28;20050;-75
2023/09/03 02:55:44;;;;;;;7.93;4.80;;;;;;;;;;1031509;28;20014;-75
2023/09/03 02:56:15;;;;;;;7.53;5.40;;;;;;;;;;1027745;28;20433;-75
2023/09/03 02:56:45;;;;;;;9.43;5.30;;;;;;;;;;1027459;28;20117;-75
2023/09/03 02:57:15;;;;;;;7.00;5.07;;;;;;;;;;1019612;29;20024;-74
2023/09/03 02:57:46;;;;;;;6.72;4.65;;;;;;;;;;1023526;28;20102;-74
2023/09/03 02:58:16;;;;;;;9.68;5.35;;;;;;;;;;1023596;29;20015;-76
2023/09/03 02:58:46;;;;;;;10.18;5.00;;;;;;;;;;1027558;28;20010;-75
2023/09/03 02:59:17;;;;;;;5.40;4.30;;;;;;;;;;1026798;28;20386;-74
2023/09/03 02:59:48;;;;;;;7.45;5.10;;;;;;;;;;1014962;29;20028;-73
2023/09/03 03:00:18;;;;;;;11.38;5.05;;;;;;;;;;1015812;29;20052;-74
2023/09/03 03:00:48;;;;;;;6.82;4.93;;;;;;;;;;1015925;29;20020;-75
2023/09/03 03:01:19;;;;;;;10.32;5.10;;;;;;;;;;1023042;28;20363;-74
2023/09/03 03:01:50;;;;;;;7.72;5.40;;;;;;;;;;1023796;28;20023;-75
2023/09/03 03:02:20;;;;;;;7.10;4.72;;;;;;;;;;1027682;28;20053;-75
2023/09/03 03:02:50;;;;;;;7.05;4.93;;;;;;;;;;1027484;28;20034;-74
2023/09/03 03:03:21;;;;;;;8.60;5.40;;;;;;;;;;1031697;28;20516;-74
2023/09/03 03:03:51;;;;;;;9.10;4.90;;;;;;;;;;1031634;28;20033;-74
2023/09/03 03:04:21;;;;;;;8.00;5.38;;;;;;;;;;1027334;28;20022;-75
2023/09/03 03:04:52;;;;;;;5.75;4.85;;;;;;;;;;1019551;28;20030;-75
2023/09/03 03:05:22;;;;;;;6.35;4.60;;;;;;;;;;1019626;29;20075;-74
2023/09/03 03:05:53;;;;;;;7.78;4.75;;;;;;;;;;1023726;29;20102;-75
2023/09/03 03:06:23;;;;;;;5.78;4.70;;;;;;;;;;1023469;28;20019;-74
2023/09/03 03:06:53;;;;;;;9.48;5.43;;;;;;;;;;1031624;28;20033;-74
2023/09/03 03:07:25;;;;;;;5.70;4.35;;;;;;;;;;1027441;28;20023;-75
2023/09/03 03:07:58;;;;;;;8.02;5.55;;;;;;;;;;1027705;28;20062;-74
2023/09/03 03:08:29;;;;;;;6.97;5.07;;;;;;;;;;1031576;28;20018;-75
2023/09/03 03:08:59;;;;;;;6.75;5.47;;;;;;;;;;1032253;28;20039;-74
2023/09/03 03:09:29;;;;;;;6.07;4.90;;;;;;;;;;1035196;28;20021;-74
2023/09/03 03:10:00;;;;;;;6.43;4.90;;;;;;;;;;1035626;28;20148;-75
2023/09/03 03:10:30;;;;;;;6.53;4.85;;;;;;;;;;1031556;28;20046;-74
2023/09/03 03:11:07;;;;;;;9.80;5.72;;;;;;;;;;1031690;28;20018;-75